Time;durP1;ratioP1;P1;durP2;ratioP2;P2;SDS_P1;SDS_P2;PMS_P1;PMS_P2;Temp;Humidity;BMP_temperature;BMP_pressure;BME280_temperature;BME280_humidity;BME280_pressure;Samples;Min_cycle;Max_cycle;Signal;HPM_P1;HPM_P2
2022/08/09 00:02:17;;;;;;;;;;;;;;;;;;5015768;28;20000;-80
2022/08/09 00:04:43;;;;;;;;;;;;;;;;;;5015211;28;19924;-78
2022/08/09 00:07:08;;;;;;;;;;;;;;;;;;5031032;28;19913;-78
2022/08/09 00:09:33;;;;;;;;;;;;;;;;;;5014278;28;19917;-79
2022/08/09 00:11:59;;;;;;;;;;;;;;;;;;5015467;28;19921;-79
2022/08/09 00:14:24;;;;;;;;;;;;;;;;;;5013712;28;19963;-78
2022/08/09 00:16:50;;;;;;;;;;;;;;;;;;5013884;28;20297;-79
2022/08/09 00:19:15;;;;;;;;;;;;;;;;;;5013870;28;19936;-80
2022/08/09 00:21:40;;;;;;;;;;;;;;;;;;5013201;28;19924;-80
2022/08/09 00:24:06;;;;;;;;;;;;;;;;;;5013179;28;19917;-80
2022/08/09 00:26:31;;;;;;;;;;;;;;;;;;5030154;28;19920;-79
2022/08/09 00:28:57;;;;;;;;;;;;;;;;;;4997491;28;19925;-80
2022/08/09 00:31:22;;;;;;;;;;;;;;;;;;5013544;28;19917;-79
2022/08/09 00:33:47;;;;;;;;;;;;;;;;;;5013140;28;19913;-79
2022/08/09 00:36:13;;;;;;;;;;;;;;;;;;5030168;28;19917;-80
2022/08/09 00:38:38;;;;;;;;;;;;;;;;;;5015063;28;19921;-79
2022/08/09 00:41:04;;;;;;;;;;;;;;;;;;4997466;28;19917;-79
2022/08/09 00:43:30;;;;;;;;;;;;;;;;;;4997063;28;20036;-80
2022/08/09 00:45:55;;;;;;;;;;;;;;;;;;5014099;28;19941;-79
2022/08/09 00:48:20;;;;;;;;;;;;;;;;;;5014916;28;20395;-79
2022/08/09 00:50:46;;;;;;;;;;;;;;;;;;5015264;28;19960;-79
2022/08/09 00:53:11;;;;;;;;;;;;;;;;;;5030531;28;19920;-79
2022/08/09 00:55:37;;;;;;;;;;;;;;;;;;5015466;28;19976;-79
2022/08/09 00:58:02;;;;;;;;;;;;;;;;;;5030431;28;20350;-79
2022/08/09 01:00:27;;;;;;;;;;;;;;;;;;5014816;28;20402;-78
2022/08/09 01:02:53;;;;;;;;;;;;;;;;;;5012799;28;19922;-79
2022/08/09 01:05:18;;;;;;;;;;;;;;;;;;5013007;28;19913;-80
2022/08/09 01:07:45;;;;;;;;;;;;;;;;;;5013699;28;20363;-80
2022/08/09 01:10:10;;;;;;;;;;;;;;;;;;5001919;28;19917;-80
2022/08/09 01:12:35;;;;;;;;;;;;;;;;;;5021549;28;19960;-79
2022/08/09 01:15:01;;;;;;;;;;;;;;;;;;5021324;28;20376;-81
2022/08/09 01:17:26;;;;;;;;;;;;;;;;;;5020480;28;19913;-81
2022/08/09 01:19:52;;;;;;;;;;;;;;;;;;5019688;28;20384;-81
2022/08/09 01:22:17;;;;;;;;;;;;;;;;;;5020755;28;19920;-81
2022/08/09 01:24:43;;;;;;;;;;;;;;;;;;5037898;28;19917;-80
2022/08/09 01:27:08;;;;;;;;;;;;;;;;;;5022050;28;20005;-80
2022/08/09 01:29:34;;;;;;;;;;;;;;;;;;5000471;28;19917;-80
2022/08/09 01:31:59;;;;;;;;;;;;;;;;;;5013365;28;19913;-79
2022/08/09 01:34:25;;;;;;;;;;;;;;;;;;5012379;28;19917;-79
2022/08/09 01:36:50;;;;;;;;;;;;;;;;;;5012746;28;19917;-80
2022/08/09 01:39:15;;;;;;;;;;;;;;;;;;5013682;28;20384;-79
2022/08/09 01:41:41;;;;;;;;;;;;;;;;;;5012401;28;20013;-80
2022/08/09 01:44:06;;;;;;;;;;;;;;;;;;5013016;28;19917;-79
2022/08/09 01:46:31;;;;;;;;;;;;;;;;;;5013462;28;20417;-78
2022/08/09 01:48:57;;;;;;;;;;;;;;;;;;4995660;28;19914;-78
2022/08/09 01:51:22;;;;;;;;;;;;;;;;;;5012047;28;19914;-79
2022/08/09 01:53:48;;;;;;;;;;;;;;;;;;5011613;28;19914;-79
2022/08/09 01:56:13;;;;;;;;;;;;;;;;;;5013104;28;20455;-80
2022/08/09 01:58:38;;;;;;;;;;;;;;;;;;5013244;28;20380;-79
2022/08/09 02:01:04;;;;;;;;;;;;;;;;;;4995834;28;19917;-78
2022/08/09 02:03:29;;;;;;;;;;;;;;;;;;5012682;28;19921;-80
2022/08/09 02:05:54;;;;;;;;;;;;;;;;;;5012124;28;19914;-79
2022/08/09 02:08:20;;;;;;;;;;;;;;;;;;5011989;28;19932;-79
2022/08/09 02:10:45;;;;;;;;;;;;;;;;;;5028311;28;19914;-79
2022/08/09 02:13:11;;;;;;;;;;;;;;;;;;5028188;28;19913;-79
2022/08/09 02:15:36;;;;;;;;;;;;;;;;;;5012985;28;19992;-79
2022/08/09 02:18:02;;;;;;;;;;;;;;;;;;5012776;28;20381;-79
2022/08/09 02:20:27;;;;;;;;;;;;;;;;;;4995556;28;19953;-78
2022/08/09 02:22:52;;;;;;;;;;;;;;;;;;5011232;28;20352;-77
2022/08/09 02:25:18;;;;;;;;;;;;;;;;;;5012722;28;19913;-79
2022/08/09 02:27:43;;;;;;;;;;;;;;;;;;5028170;28;19913;-80
2022/08/09 02:30:08;;;;;;;;;;;;;;;;;;5011610;28;19913;-78
2022/08/09 02:32:34;;;;;;;;;;;;;;;;;;5011183;28;20014;-79
2022/08/09 02:34:59;;;;;;;;;;;;;;;;;;4994797;28;19921;-80
2022/08/09 02:37:24;;;;;;;;;;;;;;;;;;5011271;28;19921;-79
2022/08/09 02:39:50;;;;;;;;;;;;;;;;;;5011208;28;19913;-79
2022/08/09 02:42:15;;;;;;;;;;;;;;;;;;5011400;28;19921;-78
2022/08/09 02:44:41;;;;;;;;;;;;;;;;;;5026992;28;19918;-79
2022/08/09 02:47:06;;;;;;;;;;;;;;;;;;5012453;28;20436;-80
2022/08/09 02:49:31;;;;;;;;;;;;;;;;;;5027483;28;19964;-78
2022/08/09 02:51:57;;;;;;;;;;;;;;;;;;5012312;28;20399;-79
2022/08/09 02:54:22;;;;;;;;;;;;;;;;;;5012009;28;20384;-79
2022/08/09 02:56:48;;;;;;;;;;;;;;;;;;4994919;28;19913;-78
2022/08/09 02:59:13;;;;;;;;;;;;;;;;;;4995118;28;19949;-79
2022/08/09 03:01:39;;;;;;;;;;;;;;;;;;5012321;28;20001;-80
2022/08/09 03:04:04;;;;;;;;;;;;;;;;;;5010681;28;19928;-79
2022/08/09 03:06:30;;;;;;;;;;;;;;;;;;5027509;28;19936;-79
2022/08/09 03:08:55;;;;;;;;;;;;;;;;;;5011164;28;20384;-79
2022/08/09 03:11:21;;;;;;;;;;;;;;;;;;5011138;28;19964;-79
2022/08/09 03:13:46;;;;;;;;;;;;;;;;;;4994442;28;19917;-78
2022/08/09 03:16:11;;;;;;;;;;;;;;;;;;5010952;28;19913;-77
2022/08/09 03:18:37;;;;;;;;;;;;;;;;;;5012080;28;19921;-79
2022/08/09 03:21:02;;;;;;;;;;;;;;;;;;5010990;28;20412;-79
2022/08/09 03:23:28;;;;;;;;;;;;;;;;;;5011549;28;20076;-79
2022/08/09 03:25:53;;;;;;;;;;;;;;;;;;5011966;28;19914;-79
2022/08/09 03:28:19;;;;;;;;;;;;;;;;;;5027389;28;19995;-78
2022/08/09 03:30:44;;;;;;;;;;;;;;;;;;5012134;28;20400;-78
2022/08/09 03:33:10;;;;;;;;;;;;;;;;;;5010713;28;19913;-79
2022/08/09 03:35:35;;;;;;;;;;;;;;;;;;5012343;28;19925;-79
2022/08/09 03:38:00;;;;;;;;;;;;;;;;;;5012186;28;20360;-79
2022/08/09 03:40:26;;;;;;;;;;;;;;;;;;5011898;28;19999;-79
2022/08/09 03:42:51;;;;;;;;;;;;;;;;;;5011502;28;20221;-79
2022/08/09 03:45:16;;;;;;;;;;;;;;;;;;5026863;28;20008;-79
2022/08/09 03:47:42;;;;;;;;;;;;;;;;;;5011798;28;19964;-79
2022/08/09 03:50:10;;;;;;;;;;;;;;;;;;5010619;28;19913;-79
2022/08/09 03:52:35;;;;;;;;;;;;;;;;;;5011287;28;19913;-78
2022/08/09 03:55:01;;;;;;;;;;;;;;;;;;5011212;28;20012;-79
2022/08/09 03:57:26;;;;;;;;;;;;;;;;;;5013804;28;19914;-79
2022/08/09 03:59:52;;;;;;;;;;;;;;;;;;5014223;28;19913;-79
2022/08/09 04:02:17;;;;;;;;;;;;;;;;;;5015173;28;19914;-79
2022/08/09 04:04:42;;;;;;;;;;;;;;;;;;5014707;28;19917;-79
2022/08/09 04:07:08;;;;;;;;;;;;;;;;;;5013957;28;19914;-79
2022/08/09 04:09:33;;;;;;;;;;;;;;;;;;5015014;28;20293;-79
2022/08/09 04:11:58;;;;;;;;;;;;;;;;;;5015075;28;20006;-79
2022/08/09 04:14:24;;;;;;;;;;;;;;;;;;5014536;28;19952;-80
2022/08/09 04:16:49;;;;;;;;;;;;;;;;;;5015035;28;19913;-79
2022/08/09 04:19:15;;;;;;;;;;;;;;;;;;5015003;28;20441;-79
2022/08/09 04:21:40;;;;;;;;;;;;;;;;;;5014884;28;19919;-79
2022/08/09 04:24:05;;;;;;;;;;;;;;;;;;5013111;28;20365;-80
2022/08/09 04:26:31;;;;;;;;;;;;;;;;;;5014729;28;19945;-79
2022/08/09 04:28:56;;;;;;;;;;;;;;;;;;5014688;28;20384;-78
2022/08/09 04:31:21;;;;;;;;;;;;;;;;;;5014705;28;20385;-80
2022/08/09 04:33:47;;;;;;;;;;;;;;;;;;5015116;28;19977;-78
2022/08/09 04:36:12;;;;;;;;;;;;;;;;;;5015467;28;20407;-78
2022/08/09 04:38:37;;;;;;;;;;;;;;;;;;5016792;28;20428;-79
2022/08/09 04:41:03;;;;;;;;;;;;;;;;;;5018766;28;20388;-78
2022/08/09 04:43:28;;;;;;;;;;;;;;;;;;5013317;28;19917;-78
2022/08/09 04:45:53;;;;;;;;;;;;;;;;;;5014539;28;19989;-79
2022/08/09 04:48:19;;;;;;;;;;;;;;;;;;5014511;28;20241;-78
2022/08/09 04:50:44;;;;;;;;;;;;;;;;;;5029504;28;19924;-79
2022/08/09 04:53:10;;;;;;;;;;;;;;;;;;5029005;28;20311;-79
2022/08/09 04:55:35;;;;;;;;;;;;;;;;;;5013143;28;19909;-80
2022/08/09 04:58:00;;;;;;;;;;;;;;;;;;5029424;28;19984;-79
2022/08/09 05:00:26;;;;;;;;;;;;;;;;;;5014129;28;20451;-79
2022/08/09 05:02:51;;;;;;;;;;;;;;;;;;5012352;28;20454;-80
2022/08/09 05:05:17;;;;;;;;;;;;;;;;;;5014055;28;19937;-80
2022/08/09 05:07:42;;;;;;;;;;;;;;;;;;4996448;28;19913;-79
2022/08/09 05:10:07;;;;;;;;;;;;;;;;;;5012815;28;19922;-79
2022/08/09 05:12:33;;;;;;;;;;;;;;;;;;5012875;28;20448;-79
2022/08/09 05:14:58;;;;;;;;;;;;;;;;;;5012726;28;19914;-79
2022/08/09 05:17:23;;;;;;;;;;;;;;;;;;5015578;28;19918;-79
2022/08/09 05:19:49;;;;;;;;;;;;;;;;;;5012779;28;20269;-79
2022/08/09 05:22:15;;;;;;;;;;;;;;;;;;5013897;28;20020;-79
2022/08/09 05:24:40;;;;;;;;;;;;;;;;;;5013322;28;19918;-81
2022/08/09 05:27:06;;;;;;;;;;;;;;;;;;5013882;28;19985;-79
2022/08/09 05:29:31;;;;;;;;;;;;;;;;;;5012760;28;19914;-79
2022/08/09 05:31:59;;;;;;;;;;;;;;;;;;5012299;28;20384;-79
2022/08/09 05:34:24;;;;;;;;;;;;;;;;;;5013038;28;20008;-79
2022/08/09 05:36:50;;;;;;;;;;;;;;;;;;5012176;28;20431;-80
2022/08/09 05:39:15;;;;;;;;;;;;;;;;;;4996024;28;20017;-78
2022/08/09 05:41:40;;;;;;;;;;;;;;;;;;5012456;28;20373;-80
2022/08/09 05:44:06;;;;;;;;;;;;;;;;;;5012763;28;20355;-79
2022/08/09 05:46:31;;;;;;;;;;;;;;;;;;5011714;28;20381;-79
2022/08/09 05:48:56;;;;;;;;;;;;;;;;;;5011878;28;19961;-80
2022/08/09 05:51:22;;;;;;;;;;;;;;;;;;5011558;28;19913;-80
2022/08/09 05:53:48;;;;;;;;;;;;;;;;;;5011240;28;20388;-79
2022/08/09 05:56:13;;;;;;;;;;;;;;;;;;5011812;28;19922;-79
2022/08/09 05:58:39;;;;;;;;;;;;;;;;;;5013592;28;19913;-80
2022/08/09 06:01:04;;;;;;;;;;;;;;;;;;5011687;28;19924;-79
2022/08/09 06:03:29;;;;;;;;;;;;;;;;;;5011195;28;19925;-79
2022/08/09 06:05:55;;;;;;;;;;;;;;;;;;5028057;28;20380;-79
2022/08/09 06:08:22;;;;;;;;;;;;;;;;;;5011889;28;20473;-80
2022/08/09 06:10:47;;;;;;;;;;;;;;;;;;5012404;28;19976;-81
2022/08/09 06:13:13;;;;;;;;;;;;;;;;;;5012799;28;19913;-80
2022/08/09 06:15:38;;;;;;;;;;;;;;;;;;5012619;28;20435;-79
2022/08/09 06:18:03;;;;;;;;;;;;;;;;;;5011721;28;19913;-79
2022/08/09 06:20:29;;;;;;;;;;;;;;;;;;5012551;28;19967;-81
2022/08/09 06:22:54;;;;;;;;;;;;;;;;;;5010985;28;19917;-79
2022/08/09 06:25:20;;;;;;;;;;;;;;;;;;5011560;28;19922;-79
2022/08/09 06:27:45;;;;;;;;;;;;;;;;;;5012459;28;19920;-80
2022/08/09 06:30:10;;;;;;;;;;;;;;;;;;5012528;28;19913;-80
2022/08/09 06:32:36;;;;;;;;;;;;;;;;;;5010942;28;20016;-80
2022/08/09 06:35:01;;;;;;;;;;;;;;;;;;5011175;28;20331;-78
2022/08/09 06:37:26;;;;;;;;;;;;;;;;;;5011200;28;19920;-79
2022/08/09 06:39:52;;;;;;;;;;;;;;;;;;5027428;28;20458;-79
2022/08/09 06:42:17;;;;;;;;;;;;;;;;;;5012060;28;20440;-79
2022/08/09 06:44:42;;;;;;;;;;;;;;;;;;5011802;28;19920;-79
2022/08/09 06:47:08;;;;;;;;;;;;;;;;;;5012503;28;19914;-78
2022/08/09 06:49:33;;;;;;;;;;;;;;;;;;5012366;28;19920;-79
2022/08/09 06:51:59;;;;;;;;;;;;;;;;;;5012375;28;19937;-79
2022/08/09 06:54:24;;;;;;;;;;;;;;;;;;5011859;28;19965;-78
2022/08/09 06:56:49;;;;;;;;;;;;;;;;;;5012090;28;19914;-79
2022/08/09 06:59:15;;;;;;;;;;;;;;;;;;5012145;28;20351;-78
2022/08/09 07:01:40;;;;;;;;;;;;;;;;;;5010763;28;20348;-79
2022/08/09 07:04:05;;;;;;;;;;;;;;;;;;5010278;28;19918;-80
2022/08/09 07:06:31;;;;;;;;;;;;;;;;;;5011999;28;19918;-77
2022/08/09 07:08:56;;;;;;;;;;;;;;;;;;5011935;28;19921;-79
2022/08/09 07:11:21;;;;;;;;;;;;;;;;;;5027104;28;20009;-78
2022/08/09 07:13:47;;;;;;;;;;;;;;;;;;5026572;28;19936;-78
2022/08/09 07:16:12;;;;;;;;;;;;;;;;;;5010644;28;20442;-79
2022/08/09 07:18:38;;;;;;;;;;;;;;;;;;5011169;28;19993;-80
2022/08/09 07:21:03;;;;;;;;;;;;;;;;;;5027279;28;20380;-78
2022/08/09 07:23:28;;;;;;;;;;;;;;;;;;5010249;28;20064;-78
2022/08/09 07:25:54;;;;;;;;;;;;;;;;;;5012594;28;19922;-79
2022/08/09 07:28:19;;;;;;;;;;;;;;;;;;5010668;28;19914;-78
2022/08/09 07:30:45;;;;;;;;;;;;;;;;;;5010657;28;19913;-79
2022/08/09 07:33:10;;;;;;;;;;;;;;;;;;5013824;28;19913;-79
2022/08/09 07:35:36;;;;;;;;;;;;;;;;;;5015558;28;19924;-78
2022/08/09 07:38:01;;;;;;;;;;;;;;;;;;5014302;28;20312;-79
2022/08/09 07:40:27;;;;;;;;;;;;;;;;;;5015386;28;19913;-77
2022/08/09 07:42:52;;;;;;;;;;;;;;;;;;5015064;28;20477;-78
2022/08/09 07:45:24;;;;;;;;;;;;;;;;;;5015637;28;19932;-79
2022/08/09 07:47:49;;;;;;;;;;;;;;;;;;5015284;28;20424;-78
2022/08/09 07:50:15;;;;;;;;;;;;;;;;;;5014247;28;19910;-78
2022/08/09 07:52:40;;;;;;;;;;;;;;;;;;5013526;28;20450;-78
2022/08/09 07:55:06;;;;;;;;;;;;;;;;;;5015177;28;20267;-78
2022/08/09 07:57:33;;;;;;;;;;;;;;;;;;5014146;28;19936;-79
2022/08/09 07:59:58;;;;;;;;;;;;;;;;;;5015142;28;19909;-80
2022/08/09 08:02:24;;;;;;;;;;;;;;;;;;5014975;28;19964;-79
2022/08/09 08:04:49;;;;;;;;;;;;;;;;;;5013747;28;20393;-80
2022/08/09 08:07:15;;;;;;;;;;;;;;;;;;5030712;28;19964;-80
2022/08/09 08:09:40;;;;;;;;;;;;;;;;;;5015112;28;19921;-80
2022/08/09 08:12:06;;;;;;;;;;;;;;;;;;5030277;28;19917;-80
2022/08/09 08:14:31;;;;;;;;;;;;;;;;;;5013518;28;19991;-79
2022/08/09 08:16:56;;;;;;;;;;;;;;;;;;5015105;28;19933;-80
2022/08/09 08:19:22;;;;;;;;;;;;;;;;;;5015074;28;19913;-79
2022/08/09 08:21:49;;;;;;;;;;;;;;;;;;5014797;28;19936;-80
2022/08/09 08:24:14;;;;;;;;;;;;;;;;;;5013086;28;19961;-80
2022/08/09 08:26:39;;;;;;;;;;;;;;;;;;5013528;28;19948;-80
2022/08/09 08:29:05;;;;;;;;;;;;;;;;;;5030062;28;19913;-80
2022/08/09 08:31:30;;;;;;;;;;;;;;;;;;5014607;28;19914;-80
2022/08/09 08:33:55;;;;;;;;;;;;;;;;;;5014596;28;19914;-80
2022/08/09 08:36:21;;;;;;;;;;;;;;;;;;5030119;28;19913;-80
2022/08/09 08:38:46;;;;;;;;;;;;;;;;;;5013512;28;20017;-80
2022/08/09 08:41:12;;;;;;;;;;;;;;;;;;5014692;28;19940;-81
2022/08/09 08:43:37;;;;;;;;;;;;;;;;;;5013858;28;20404;-80
2022/08/09 08:46:02;;;;;;;;;;;;;;;;;;5014774;28;19945;-81
2022/08/09 08:48:28;;;;;;;;;;;;;;;;;;5014863;28;19920;-80
2022/08/09 08:50:53;;;;;;;;;;;;;;;;;;5029913;28;20415;-80
2022/08/09 08:53:19;;;;;;;;;;;;;;;;;;5014442;28;19925;-80
2022/08/09 08:55:44;;;;;;;;;;;;;;;;;;5014305;28;20028;-80
2022/08/09 08:58:09;;;;;;;;;;;;;;;;;;5013329;28;19914;-81
2022/08/09 09:00:35;;;;;;;;;;;;;;;;;;5014342;28;19914;-79
2022/08/09 09:03:00;;;;;;;;;;;;;;;;;;5028818;28;19921;-81
2022/08/09 09:05:26;;;;;;;;;;;;;;;;;;5012754;28;20455;-81
2022/08/09 09:07:51;;;;;;;;;;;;;;;;;;5013765;28;19920;-80
2022/08/09 09:10:16;;;;;;;;;;;;;;;;;;5012243;28;19913;-80
2022/08/09 09:12:42;;;;;;;;;;;;;;;;;;5012066;28;20265;-80
2022/08/09 09:15:07;;;;;;;;;;;;;;;;;;5012126;28;19914;-79
2022/08/09 09:17:32;;;;;;;;;;;;;;;;;;4996357;28;19914;-79
2022/08/09 09:19:58;;;;;;;;;;;;;;;;;;5013924;28;20372;-79
2022/08/09 09:22:23;;;;;;;;;;;;;;;;;;5013384;28;19960;-80
2022/08/09 09:24:48;;;;;;;;;;;;;;;;;;5028283;28;19918;-80
2022/08/09 09:27:14;;;;;;;;;;;;;;;;;;5013257;28;20379;-80
2022/08/09 09:29:39;;;;;;;;;;;;;;;;;;5013496;28;20019;-80
2022/08/09 09:32:05;;;;;;;;;;;;;;;;;;5013269;28;19925;-79
2022/08/09 09:34:30;;;;;;;;;;;;;;;;;;5013571;28;19917;-81
2022/08/09 09:36:56;;;;;;;;;;;;;;;;;;5084351;23;20036;-78
2022/08/09 09:39:21;;;;;;;;;;;;;;;;;;5075241;28;19955;-77
2022/08/09 09:41:47;;;;;;;;;;;;;;;;;;5093155;28;19916;-77
2022/08/09 09:44:13;;;;;;;;;;;;;;;;;;5074489;28;19916;-76
2022/08/09 09:46:38;;;;;;;;;;;;;;;;;;5093033;28;19939;-77
2022/08/09 09:49:04;;;;;;;;;;;;;;;;;;5075191;28;20372;-77
2022/08/09 09:51:30;;;;;;;;;;;;;;;;;;5058573;28;19912;-77
2022/08/09 09:53:55;;;;;;;;;;;;;;;;;;5073622;28;19919;-76
2022/08/09 09:56:20;;;;;;;;;;;;;;;;;;5092689;28;20279;-75
2022/08/09 09:58:46;;;;;;;;;;;;;;;;;;5074711;28;19912;-76
2022/08/09 10:01:11;;;;;;;;;;;;;;;;;;5074589;28;20294;-78
2022/08/09 10:03:37;;;;;;;;;;;;;;;;;;5041902;28;19920;-77
2022/08/09 10:06:02;;;;;;;;;;;;;;;;;;5093323;28;19912;-76
2022/08/09 10:08:27;;;;;;;;;;;;;;;;;;5058278;28;20394;-77
2022/08/09 10:10:53;;;;;;;;;;;;;;;;;;5074890;28;20343;-77
2022/08/09 10:13:18;;;;;;;;;;;;;;;;;;5074547;28;19912;-76
2022/08/09 10:15:43;;;;;;;;;;;;;;;;;;5073860;28;19912;-77
2022/08/09 10:18:09;;;;;;;;;;;;;;;;;;5093033;28;20375;-77
2022/08/09 10:20:34;;;;;;;;;;;;;;;;;;5092581;28;19916;-76
2022/08/09 10:23:01;;;;;;;;;;;;;;;;;;5074329;28;19912;-77
2022/08/09 10:25:26;;;;;;;;;;;;;;;;;;5092332;28;20058;-76
2022/08/09 10:27:52;;;;;;;;;;;;;;;;;;5075076;28;19993;-76
2022/08/09 10:30:18;;;;;;;;;;;;;;;;;;5074467;28;20007;-76
2022/08/09 10:32:44;;;;;;;;;;;;;;;;;;5073631;28;20397;-76
2022/08/09 10:35:09;;;;;;;;;;;;;;;;;;5091602;28;19912;-76
2022/08/09 10:37:35;;;;;;;;;;;;;;;;;;5091445;28;20006;-77
2022/08/09 10:40:00;;;;;;;;;;;;;;;;;;5092131;28;19938;-78
2022/08/09 10:42:26;;;;;;;;;;;;;;;;;;5092125;28;20006;-76
2022/08/09 10:44:51;;;;;;;;;;;;;;;;;;5057119;28;19970;-78
2022/08/09 10:47:16;;;;;;;;;;;;;;;;;;5057050;28;19912;-76
2022/08/09 10:49:42;;;;;;;;;;;;;;;;;;5091735;28;19931;-75
2022/08/09 10:52:07;;;;;;;;;;;;;;;;;;5091834;28;20002;-76
2022/08/09 10:54:32;;;;;;;;;;;;;;;;;;5056630;28;19961;-75
2022/08/09 10:56:58;;;;;;;;;;;;;;;;;;5091116;28;20339;-76
2022/08/09 10:59:23;;;;;;;;;;;;;;;;;;5090661;28;20378;-77
2022/08/09 11:01:49;;;;;;;;;;;;;;;;;;5072974;28;19919;-77
2022/08/09 11:04:14;;;;;;;;;;;;;;;;;;5089687;28;19931;-76
2022/08/09 11:06:39;;;;;;;;;;;;;;;;;;5077279;28;19919;-75
2022/08/09 11:09:05;;;;;;;;;;;;;;;;;;5097697;28;20049;-76
2022/08/09 11:11:30;;;;;;;;;;;;;;;;;;5079444;28;19916;-77
2022/08/09 11:13:56;;;;;;;;;;;;;;;;;;5096674;28;19912;-76
2022/08/09 11:16:21;;;;;;;;;;;;;;;;;;5098181;28;19916;-77
2022/08/09 11:18:47;;;;;;;;;;;;;;;;;;5097741;28;20036;-77
2022/08/09 11:21:12;;;;;;;;;;;;;;;;;;5078595;28;19983;-77
2022/08/09 11:23:37;;;;;;;;;;;;;;;;;;5061483;28;19961;-76
2022/08/09 11:26:03;;;;;;;;;;;;;;;;;;5078838;28;19945;-75
2022/08/09 11:28:28;;;;;;;;;;;;;;;;;;5098524;28;19943;-77
2022/08/09 11:30:54;;;;;;;;;;;;;;;;;;5098301;28;19948;-76
2022/08/09 11:33:19;;;;;;;;;;;;;;;;;;5097553;28;19919;-77
2022/08/09 11:35:45;;;;;;;;;;;;;;;;;;5098105;28;20323;-76
2022/08/09 11:38:11;;;;;;;;;;;;;;;;;;5098232;28;19912;-76
2022/08/09 11:40:36;;;;;;;;;;;;;;;;;;5098013;28;19965;-77
2022/08/09 11:43:02;;;;;;;;;;;;;;;;;;5062761;28;20375;-78
2022/08/09 11:45:28;;;;;;;;;;;;;;;;;;5099000;28;19938;-77
2022/08/09 11:47:53;;;;;;;;;;;;;;;;;;5063222;28;19913;-77
2022/08/09 11:50:19;;;;;;;;;;;;;;;;;;5098126;28;19912;-77
2022/08/09 11:52:44;;;;;;;;;;;;;;;;;;5079916;28;19965;-78
2022/08/09 11:55:09;;;;;;;;;;;;;;;;;;5079914;28;20008;-77
2022/08/09 11:57:35;;;;;;;;;;;;;;;;;;5097975;28;19920;-77
2022/08/09 12:00:00;;;;;;;;;;;;;;;;;;5079570;28;20298;-76
2022/08/09 12:02:26;;;;;;;;;;;;;;;;;;5097495;28;19916;-76
2022/08/09 12:04:52;;;;;;;;;;;;;;;;;;5097648;28;19969;-76
2022/08/09 12:07:17;;;;;;;;;;;;;;;;;;5097739;28;19912;-78
2022/08/09 12:09:44;;;;;;;;;;;;;;;;;;5062792;28;20342;-78
2022/08/09 12:12:15;;;;;;;;;;;;;;;;;;5097523;28;20006;-78
2022/08/09 12:14:40;;;;;;;;;;;;;;;;;;5079236;28;19916;-76
2022/08/09 12:17:07;;;;;;;;;;;;;;;;;;5096103;28;19960;-77
2022/08/09 12:19:34;;;;;;;;;;;;;;;;;;5076179;28;19934;-78
2022/08/09 12:21:59;;;;;;;;;;;;;;;;;;5076089;28;20302;-77
2022/08/09 12:24:25;;;;;;;;;;;;;;;;;;5093962;28;19927;-78
2022/08/09 12:26:50;;;;;;;;;;;;;;;;;;5076351;28;19912;-78
2022/08/09 12:29:16;;;;;;;;;;;;;;;;;;5094538;28;19918;-77
2022/08/09 12:31:41;;;;;;;;;;;;;;;;;;5094258;28;19913;-76
2022/08/09 12:34:06;;;;;;;;;;;;;;;;;;5093712;28;20336;-77
2022/08/09 12:36:32;;;;;;;;;;;;;;;;;;5093593;28;20011;-78
2022/08/09 12:38:57;;;;;;;;;;;;;;;;;;5059308;28;19912;-77
2022/08/09 12:41:23;;;;;;;;;;;;;;;;;;5094003;28;19912;-77
2022/08/09 12:43:49;;;;;;;;;;;;;;;;;;5093559;28;19962;-78
2022/08/09 12:46:15;;;;;;;;;;;;;;;;;;5076032;28;19916;-76
2022/08/09 12:48:40;;;;;;;;;;;;;;;;;;5075769;28;19912;-76
2022/08/09 12:51:06;;;;;;;;;;;;;;;;;;5075752;28;19916;-78
2022/08/09 12:53:31;;;;;;;;;;;;;;;;;;5075575;28;20349;-77
2022/08/09 12:55:56;;;;;;;;;;;;;;;;;;5076082;28;19913;-77
2022/08/09 12:58:22;;;;;;;;;;;;;;;;;;5075810;28;20283;-77
2022/08/09 13:00:47;;;;;;;;;;;;;;;;;;5075884;28;19912;-76
2022/08/09 13:03:13;;;;;;;;;;;;;;;;;;5093490;28;19916;-76
2022/08/09 13:05:38;;;;;;;;;;;;;;;;;;5093752;28;19912;-78
2022/08/09 13:08:03;;;;;;;;;;;;;;;;;;5075976;28;20287;-78
2022/08/09 13:10:29;;;;;;;;;;;;;;;;;;5093840;28;19912;-77
2022/08/09 13:12:54;;;;;;;;;;;;;;;;;;5075101;28;20392;-77
2022/08/09 13:15:19;;;;;;;;;;;;;;;;;;5093674;28;19912;-78
2022/08/09 13:17:45;;;;;;;;;;;;;;;;;;5058860;28;20306;-75
2022/08/09 13:20:10;;;;;;;;;;;;;;;;;;5093568;28;19964;-76
2022/08/09 13:22:36;;;;;;;;;;;;;;;;;;5093435;28;19912;-78
2022/08/09 13:25:01;;;;;;;;;;;;;;;;;;5058481;28;20386;-78
2022/08/09 13:27:27;;;;;;;;;;;;;;;;;;5093599;28;19912;-78
2022/08/09 13:29:52;;;;;;;;;;;;;;;;;;5074061;28;19967;-77
2022/08/09 13:32:18;;;;;;;;;;;;;;;;;;5075101;28;20244;-77
2022/08/09 13:34:43;;;;;;;;;;;;;;;;;;5074733;28;19912;-77
2022/08/09 13:37:08;;;;;;;;;;;;;;;;;;5075135;28;19959;-77
2022/08/09 13:39:34;;;;;;;;;;;;;;;;;;5058459;28;20374;-77
2022/08/09 13:42:00;;;;;;;;;;;;;;;;;;5058578;28;19919;-76
2022/08/09 13:44:25;;;;;;;;;;;;;;;;;;5058089;28;20023;-75
2022/08/09 13:46:51;;;;;;;;;;;;;;;;;;5074561;28;19948;-78
2022/08/09 13:49:16;;;;;;;;;;;;;;;;;;5074705;28;19909;-77
2022/08/09 13:51:41;;;;;;;;;;;;;;;;;;5058219;28;19912;-77
2022/08/09 13:54:07;;;;;;;;;;;;;;;;;;5074350;28;19919;-77
2022/08/09 13:56:32;;;;;;;;;;;;;;;;;;5041113;28;19956;-77
2022/08/09 13:58:58;;;;;;;;;;;;;;;;;;5074511;28;19998;-77
2022/08/09 14:01:23;;;;;;;;;;;;;;;;;;5074597;28;20298;-75
2022/08/09 14:03:48;;;;;;;;;;;;;;;;;;5057283;28;19965;-75
2022/08/09 14:06:14;;;;;;;;;;;;;;;;;;5074860;28;19918;-76
2022/08/09 14:08:40;;;;;;;;;;;;;;;;;;5092542;28;20014;-76
2022/08/09 14:11:05;;;;;;;;;;;;;;;;;;5074338;28;19916;-75
2022/08/09 14:13:31;;;;;;;;;;;;;;;;;;5057688;28;19912;-75
2022/08/09 14:15:56;;;;;;;;;;;;;;;;;;5074123;28;19909;-76
2022/08/09 14:18:23;;;;;;;;;;;;;;;;;;5092326;28;19934;-76
2022/08/09 14:20:48;;;;;;;;;;;;;;;;;;5057494;28;19912;-77
2022/08/09 14:23:14;;;;;;;;;;;;;;;;;;5091926;28;19912;-76
2022/08/09 14:25:39;;;;;;;;;;;;;;;;;;5074236;28;19912;-76
2022/08/09 14:28:04;;;;;;;;;;;;;;;;;;5092543;28;19969;-74
2022/08/09 14:30:30;;;;;;;;;;;;;;;;;;5093290;28;19919;-77
2022/08/09 14:32:55;;;;;;;;;;;;;;;;;;5092021;28;19931;-78
2022/08/09 14:35:20;;;;;;;;;;;;;;;;;;5074004;28;19923;-77
2022/08/09 14:37:46;;;;;;;;;;;;;;;;;;5092295;28;20399;-76
2022/08/09 14:40:11;;;;;;;;;;;;;;;;;;5091840;28;20444;-77
2022/08/09 14:42:37;;;;;;;;;;;;;;;;;;5073933;28;19912;-76
2022/08/09 14:45:02;;;;;;;;;;;;;;;;;;5074003;28;19961;-77
2022/08/09 14:47:28;;;;;;;;;;;;;;;;;;5073772;28;19941;-76
2022/08/09 14:49:53;;;;;;;;;;;;;;;;;;5074083;28;19959;-77
2022/08/09 14:52:19;;;;;;;;;;;;;;;;;;5092008;28;19912;-77
2022/08/09 14:54:44;;;;;;;;;;;;;;;;;;5091528;28;20262;-75
2022/08/09 14:57:09;;;;;;;;;;;;;;;;;;5091860;28;19908;-76
2022/08/09 14:59:35;;;;;;;;;;;;;;;;;;5073800;28;19916;-75
2022/08/09 15:02:00;;;;;;;;;;;;;;;;;;5073732;28;20298;-76
2022/08/09 15:04:25;;;;;;;;;;;;;;;;;;5090957;28;20393;-76
2022/08/09 15:06:51;;;;;;;;;;;;;;;;;;5091678;28;20294;-78
2022/08/09 15:09:16;;;;;;;;;;;;;;;;;;5056629;28;19912;-76
2022/08/09 15:11:42;;;;;;;;;;;;;;;;;;5057045;28;19912;-75
2022/08/09 15:14:07;;;;;;;;;;;;;;;;;;5073326;28;19919;-76
2022/08/09 15:16:33;;;;;;;;;;;;;;;;;;5073513;28;20379;-76
2022/08/09 15:18:58;;;;;;;;;;;;;;;;;;5073209;28;19912;-77
2022/08/09 15:21:23;;;;;;;;;;;;;;;;;;5073458;28;19947;-76
2022/08/09 15:23:49;;;;;;;;;;;;;;;;;;5091154;28;20011;-78
2022/08/09 15:26:14;;;;;;;;;;;;;;;;;;5091597;28;19916;-77
2022/08/09 15:28:40;;;;;;;;;;;;;;;;;;5056841;28;20282;-76
2022/08/09 15:31:05;;;;;;;;;;;;;;;;;;5091744;28;19989;-74
2022/08/09 15:33:31;;;;;;;;;;;;;;;;;;5091045;28;20328;-77
2022/08/09 15:35:56;;;;;;;;;;;;;;;;;;5073331;28;20367;-75
2022/08/09 15:38:21;;;;;;;;;;;;;;;;;;5073310;28;19912;-77
2022/08/09 15:40:47;;;;;;;;;;;;;;;;;;5091510;28;19912;-76
2022/08/09 15:43:12;;;;;;;;;;;;;;;;;;5091009;28;20344;-77
2022/08/09 15:45:38;;;;;;;;;;;;;;;;;;5091467;28;19912;-76
2022/08/09 15:48:03;;;;;;;;;;;;;;;;;;5056565;28;19908;-77
2022/08/09 15:50:28;;;;;;;;;;;;;;;;;;5073487;28;19913;-77
2022/08/09 15:52:54;;;;;;;;;;;;;;;;;;5092300;28;19995;-78
2022/08/09 15:55:19;;;;;;;;;;;;;;;;;;5077075;28;20017;-77
2022/08/09 15:57:45;;;;;;;;;;;;;;;;;;5094949;28;19951;-76
2022/08/09 16:00:12;;;;;;;;;;;;;;;;;;5094862;28;20454;-75
2022/08/09 16:02:38;;;;;;;;;;;;;;;;;;5094243;28;19912;-76
2022/08/09 16:05:03;;;;;;;;;;;;;;;;;;5076952;28;20307;-75
2022/08/09 16:07:29;;;;;;;;;;;;;;;;;;5094943;28;19919;-76
2022/08/09 16:09:54;;;;;;;;;;;;;;;;;;5094915;28;19916;-77
2022/08/09 16:12:19;;;;;;;;;;;;;;;;;;5094822;28;20295;-75
2022/08/09 16:14:45;;;;;;;;;;;;;;;;;;5094610;28;19916;-76
2022/08/09 16:17:10;;;;;;;;;;;;;;;;;;5076390;28;20372;-78
2022/08/09 16:19:36;;;;;;;;;;;;;;;;;;5094753;28;19955;-77
2022/08/09 16:22:01;;;;;;;;;;;;;;;;;;5076618;28;20283;-77
2022/08/09 16:24:26;;;;;;;;;;;;;;;;;;5094220;28;19916;-75
2022/08/09 16:26:52;;;;;;;;;;;;;;;;;;5043141;28;19912;-76
2022/08/09 16:29:17;;;;;;;;;;;;;;;;;;5094456;28;19908;-76
2022/08/09 16:31:42;;;;;;;;;;;;;;;;;;5059943;28;20050;-76
2022/08/09 16:34:08;;;;;;;;;;;;;;;;;;5094169;28;19923;-77